Terminal Aerodrome Forecast
Issued by NWS

Home | Current Version | Previous Version | Text Only | Print | Product List | Glossary On
Versions: 1 2 3 4 5 6 7 8 9 10 11 12 13 14 15 16 17 18
698
FTUS43 KGRR 251605 AAB
TAFAZO
TAF AMD
KAZO 251605Z 2516/2612 35009KT 5SM BR VCSH OVC006
     FM251800 35009KT 6SM BR VCSH OVC012
     FM252000 33010KT P6SM VCSH OVC025
     FM260100 31006KT P6SM OVC019
     FM260500 30004KT P6SM OVC009
     FM260600 VRB03KT 2SM BR OVC007=

USA.gov is the U.S. government's official web portal to all federal, state and local government web resources and services.